sensor_id;sensor_type;location;lat;lon;timestamp;pressure;altitude;pressure_sealevel;temperature;humidity
13867;BME280;7003;46.982;15.248;2023-03-23T00:01:16;96884.69;;;6.76;100.00
13867;BME280;7003;46.982;15.248;2023-03-23T00:03:50;96881.88;;;6.64;100.00
13867;BME280;7003;46.982;15.248;2023-03-23T00:06:20;96877.31;;;6.55;100.00
13867;BME280;7003;46.982;15.248;2023-03-23T00:08:51;96870.50;;;6.63;100.00
13867;BME280;7003;46.982;15.248;2023-03-23T00:11:25;96877.47;;;6.59;100.00
13867;BME280;7003;46.982;15.248;2023-03-23T00:13:56;96877.97;;;6.61;100.00
13867;BME280;7003;46.982;15.248;2023-03-23T00:16:32;96875.72;;;6.46;100.00
13867;BME280;7003;46.982;15.248;2023-03-23T00:19:05;96879.88;;;6.38;100.00
13867;BME280;7003;46.982;15.248;2023-03-23T00:21:34;96881.00;;;6.15;100.00
13867;BME280;7003;46.982;15.248;2023-03-23T00:24:04;96872.13;;;6.11;100.00
13867;BME280;7003;46.982;15.248;2023-03-23T00:26:36;96879.53;;;6.00;100.00
13867;BME280;7003;46.982;15.248;2023-03-23T00:29:06;96874.44;;;6.04;100.00
13867;BME280;7003;46.982;15.248;2023-03-23T00:31:34;96874.84;;;6.28;100.00
13867;BME280;7003;46.982;15.248;2023-03-23T00:34:04;96875.13;;;6.18;100.00
13867;BME280;7003;46.982;15.248;2023-03-23T00:36:33;96869.91;;;6.04;100.00
13867;BME280;7003;46.982;15.248;2023-03-23T00:39:02;96866.97;;;6.06;100.00
13867;BME280;7003;46.982;15.248;2023-03-23T00:41:32;96872.44;;;5.87;100.00
13867;BME280;7003;46.982;15.248;2023-03-23T00:44:03;96869.03;;;5.73;100.00
13867;BME280;7003;46.982;15.248;2023-03-23T00:46:31;96867.91;;;5.65;100.00
13867;BME280;7003;46.982;15.248;2023-03-23T00:48:59;96867.44;;;5.63;100.00
13867;BME280;7003;46.982;15.248;2023-03-23T00:51:26;96864.81;;;5.63;100.00
13867;BME280;7003;46.982;15.248;2023-03-23T00:53:53;96877.03;;;5.59;100.00
13867;BME280;7003;46.982;15.248;2023-03-23T00:56:22;96863.84;;;5.59;100.00
13867;BME280;7003;46.982;15.248;2023-03-23T00:58:49;96863.06;;;5.59;100.00
13867;BME280;7003;46.982;15.248;2023-03-23T01:01:18;96854.97;;;5.55;100.00
13867;BME280;7003;46.982;15.248;2023-03-23T01:03:45;96847.63;;;5.52;100.00
13867;BME280;7003;46.982;15.248;2023-03-23T01:06:14;96845.38;;;5.59;100.00
13867;BME280;7003;46.982;15.248;2023-03-23T01:08:44;96844.66;;;5.67;100.00
13867;BME280;7003;46.982;15.248;2023-03-23T01:11:15;96836.63;;;5.72;100.00
13867;BME280;7003;46.982;15.248;2023-03-23T01:13:43;96836.25;;;5.43;100.00
13867;BME280;7003;46.982;15.248;2023-03-23T01:16:13;96830.91;;;5.34;100.00
13867;BME280;7003;46.982;15.248;2023-03-23T01:18:42;96830.84;;;5.26;100.00
13867;BME280;7003;46.982;15.248;2023-03-23T01:21:11;96834.22;;;5.40;100.00
13867;BME280;7003;46.982;15.248;2023-03-23T01:23:39;96830.88;;;5.48;100.00
13867;BME280;7003;46.982;15.248;2023-03-23T01:26:08;96839.13;;;5.33;100.00
13867;BME280;7003;46.982;15.248;2023-03-23T01:28:40;96833.44;;;5.39;100.00
13867;BME280;7003;46.982;15.248;2023-03-23T01:31:10;96835.16;;;5.44;100.00
13867;BME280;7003;46.982;15.248;2023-03-23T01:33:42;96833.88;;;5.55;100.00
13867;BME280;7003;46.982;15.248;2023-03-23T01:36:12;96830.03;;;5.61;100.00
13867;BME280;7003;46.982;15.248;2023-03-23T01:38:39;96830.97;;;5.65;100.00
13867;BME280;7003;46.982;15.248;2023-03-23T01:41:08;96830.97;;;5.65;100.00
13867;BME280;7003;46.982;15.248;2023-03-23T01:43:58;96827.69;;;5.60;100.00
13867;BME280;7003;46.982;15.248;2023-03-23T01:46:27;96823.19;;;5.60;100.00
13867;BME280;7003;46.982;15.248;2023-03-23T01:48:58;96821.03;;;5.62;100.00
13867;BME280;7003;46.982;15.248;2023-03-23T01:51:33;96815.25;;;5.60;100.00
13867;BME280;7003;46.982;15.248;2023-03-23T01:54:07;96812.47;;;5.57;100.00
13867;BME280;7003;46.982;15.248;2023-03-23T01:56:41;96811.91;;;5.46;100.00
13867;BME280;7003;46.982;15.248;2023-03-23T01:59:13;96808.84;;;5.53;100.00
13867;BME280;7003;46.982;15.248;2023-03-23T02:01:41;96817.19;;;5.46;100.00
13867;BME280;7003;46.982;15.248;2023-03-23T02:04:16;96814.78;;;5.36;100.00
13867;BME280;7003;46.982;15.248;2023-03-23T02:06:47;96812.25;;;5.31;100.00
13867;BME280;7003;46.982;15.248;2023-03-23T02:09:14;96814.34;;;5.20;100.00
13867;BME280;7003;46.982;15.248;2023-03-23T02:11:46;96819.44;;;5.17;100.00
13867;BME280;7003;46.982;15.248;2023-03-23T02:14:13;96811.00;;;5.28;100.00
13867;BME280;7003;46.982;15.248;2023-03-23T02:16:45;96816.31;;;5.15;100.00
13867;BME280;7003;46.982;15.248;2023-03-23T02:19:32;96811.03;;;5.15;100.00
13867;BME280;7003;46.982;15.248;2023-03-23T02:22:27;96812.19;;;5.22;100.00
13867;BME280;7003;46.982;15.248;2023-03-23T02:25:18;96813.47;;;5.25;100.00
13867;BME280;7003;46.982;15.248;2023-03-23T02:31:16;96814.53;;;5.24;100.00
13867;BME280;7003;46.982;15.248;2023-03-23T02:33:50;96811.28;;;5.27;100.00
13867;BME280;7003;46.982;15.248;2023-03-23T02:36:28;96820.06;;;5.36;100.00
13867;BME280;7003;46.982;15.248;2023-03-23T02:39:01;96823.81;;;5.21;100.00
13867;BME280;7003;46.982;15.248;2023-03-23T02:41:36;96822.44;;;5.24;100.00
13867;BME280;7003;46.982;15.248;2023-03-23T02:44:09;96814.53;;;5.24;100.00
13867;BME280;7003;46.982;15.248;2023-03-23T02:46:41;96813.16;;;5.26;100.00
13867;BME280;7003;46.982;15.248;2023-03-23T02:49:12;96815.38;;;5.33;100.00
13867;BME280;7003;46.982;15.248;2023-03-23T02:51:46;96805.56;;;5.25;100.00
13867;BME280;7003;46.982;15.248;2023-03-23T02:54:15;96805.25;;;5.26;100.00
13867;BME280;7003;46.982;15.248;2023-03-23T02:56:44;96813.09;;;5.18;100.00
13867;BME280;7003;46.982;15.248;2023-03-23T02:59:12;96808.53;;;4.96;100.00
13867;BME280;7003;46.982;15.248;2023-03-23T03:01:51;96808.88;;;4.94;100.00
13867;BME280;7003;46.982;15.248;2023-03-23T03:04:23;96806.16;;;4.86;100.00
13867;BME280;7003;46.982;15.248;2023-03-23T03:07:04;96806.72;;;4.83;100.00
13867;BME280;7003;46.982;15.248;2023-03-23T03:09:42;96815.22;;;4.66;100.00
13867;BME280;7003;46.982;15.248;2023-03-23T03:12:21;96813.38;;;4.67;100.00
13867;BME280;7003;46.982;15.248;2023-03-23T03:14:53;96810.84;;;4.61;100.00
13867;BME280;7003;46.982;15.248;2023-03-23T03:17:24;96810.47;;;4.68;100.00
13867;BME280;7003;46.982;15.248;2023-03-23T03:19:56;96809.97;;;4.66;100.00
13867;BME280;7003;46.982;15.248;2023-03-23T03:22:27;96808.50;;;4.60;100.00
13867;BME280;7003;46.982;15.248;2023-03-23T03:25:03;96808.00;;;4.58;100.00
13867;BME280;7003;46.982;15.248;2023-03-23T03:27:31;96808.69;;;4.50;100.00
13867;BME280;7003;46.982;15.248;2023-03-23T03:30:03;96807.44;;;4.61;100.00
13867;BME280;7003;46.982;15.248;2023-03-23T03:32:36;96812.03;;;4.42;100.00
13867;BME280;7003;46.982;15.248;2023-03-23T03:35:07;96806.94;;;4.59;100.00
13867;BME280;7003;46.982;15.248;2023-03-23T03:37:38;96803.44;;;4.50;100.00
13867;BME280;7003;46.982;15.248;2023-03-23T03:40:09;96806.69;;;4.47;100.00
13867;BME280;7003;46.982;15.248;2023-03-23T03:42:38;96812.22;;;4.45;100.00
13867;BME280;7003;46.982;15.248;2023-03-23T03:45:07;96808.91;;;4.40;100.00
13867;BME280;7003;46.982;15.248;2023-03-23T03:47:35;96819.63;;;4.43;100.00
13867;BME280;7003;46.982;15.248;2023-03-23T03:50:03;96816.41;;;4.60;100.00
13867;BME280;7003;46.982;15.248;2023-03-23T03:52:32;96810.25;;;4.51;100.00
13867;BME280;7003;46.982;15.248;2023-03-23T03:54:59;96820.69;;;4.42;100.00
13867;BME280;7003;46.982;15.248;2023-03-23T03:57:26;96818.56;;;4.44;100.00
13867;BME280;7003;46.982;15.248;2023-03-23T03:59:55;96816.59;;;4.50;100.00
13867;BME280;7003;46.982;15.248;2023-03-23T04:02:22;96819.84;;;4.60;100.00
13867;BME280;7003;46.982;15.248;2023-03-23T04:04:50;96812.44;;;4.49;100.00
13867;BME280;7003;46.982;15.248;2023-03-23T04:07:18;96815.81;;;4.49;100.00
13867;BME280;7003;46.982;15.248;2023-03-23T04:09:48;96811.94;;;4.47;100.00
13867;BME280;7003;46.982;15.248;2023-03-23T04:12:17;96819.91;;;4.42;100.00
13867;BME280;7003;46.982;15.248;2023-03-23T04:14:47;96813.91;;;4.41;100.00
13867;BME280;7003;46.982;15.248;2023-03-23T04:17:14;96816.81;;;4.40;100.00
13867;BME280;7003;46.982;15.248;2023-03-23T04:19:42;96820.53;;;4.39;100.00
13867;BME280;7003;46.982;15.248;2023-03-23T04:22:10;96818.47;;;4.36;100.00
13867;BME280;7003;46.982;15.248;2023-03-23T04:24:37;96817.19;;;4.19;100.00
13867;BME280;7003;46.982;15.248;2023-03-23T04:27:05;96826.06;;;4.10;100.00
13867;BME280;7003;46.982;15.248;2023-03-23T04:29:32;96832.69;;;4.07;100.00
13867;BME280;7003;46.982;15.248;2023-03-23T04:32:00;96818.34;;;4.13;100.00
13867;BME280;7003;46.982;15.248;2023-03-23T04:34:30;96822.06;;;4.12;100.00
13867;BME280;7003;46.982;15.248;2023-03-23T04:37:00;96821.78;;;4.28;100.00
13867;BME280;7003;46.982;15.248;2023-03-23T04:39:28;96824.22;;;4.24;100.00
13867;BME280;7003;46.982;15.248;2023-03-23T04:42:01;96828.72;;;4.23;100.00
13867;BME280;7003;46.982;15.248;2023-03-23T04:44:35;96828.03;;;4.18;100.00
13867;BME280;7003;46.982;15.248;2023-03-23T04:47:03;96822.06;;;4.12;100.00
13867;BME280;7003;46.982;15.248;2023-03-23T04:49:31;96836.28;;;4.11;100.00
13867;BME280;7003;46.982;15.248;2023-03-23T04:51:58;96828.22;;;4.21;100.00
13867;BME280;7003;46.982;15.248;2023-03-23T04:54:27;96834.03;;;4.18;100.00
13867;BME280;7003;46.982;15.248;2023-03-23T04:56:55;96834.25;;;4.08;100.00
13867;BME280;7003;46.982;15.248;2023-03-23T04:59:23;96833.25;;;4.04;100.00
13867;BME280;7003;46.982;15.248;2023-03-23T05:01:56;96832.19;;;4.05;100.00
13867;BME280;7003;46.982;15.248;2023-03-23T05:04:24;96831.63;;;4.08;100.00
13867;BME280;7003;46.982;15.248;2023-03-23T05:06:53;96827.94;;;4.23;100.00
13867;BME280;7003;46.982;15.248;2023-03-23T05:09:22;96831.34;;;4.23;100.00
13867;BME280;7003;46.982;15.248;2023-03-23T05:11:55;96834.34;;;4.17;100.00
13867;BME280;7003;46.982;15.248;2023-03-23T05:14:26;96835.72;;;4.28;100.00
13867;BME280;7003;46.982;15.248;2023-03-23T05:16:57;96834.38;;;4.31;100.00
13867;BME280;7003;46.982;15.248;2023-03-23T05:19:27;96836.91;;;4.36;100.00
13867;BME280;7003;46.982;15.248;2023-03-23T05:21:57;96836.31;;;4.25;100.00
13867;BME280;7003;46.982;15.248;2023-03-23T05:24:30;96840.97;;;4.28;100.00
13867;BME280;7003;46.982;15.248;2023-03-23T05:27:00;96848.59;;;4.30;100.00
13867;BME280;7003;46.982;15.248;2023-03-23T05:29:30;96848.41;;;4.40;100.00
13867;BME280;7003;46.982;15.248;2023-03-23T05:32:02;96853.88;;;4.43;100.00
13867;BME280;7003;46.982;15.248;2023-03-23T05:34:35;96857.50;;;4.47;100.00
13867;BME280;7003;46.982;15.248;2023-03-23T05:37:04;96857.38;;;4.39;100.00
13867;BME280;7003;46.982;15.248;2023-03-23T05:39:36;96863.63;;;4.43;100.00
13867;BME280;7003;46.982;15.248;2023-03-23T05:42:08;96867.53;;;4.59;100.00
13867;BME280;7003;46.982;15.248;2023-03-23T05:44:43;96866.84;;;4.67;100.00
13867;BME280;7003;46.982;15.248;2023-03-23T05:47:18;96867.34;;;4.69;100.00
13867;BME280;7003;46.982;15.248;2023-03-23T05:49:50;96867.13;;;4.65;100.00
13867;BME280;7003;46.982;15.248;2023-03-23T05:52:19;96872.03;;;4.72;100.00
13867;BME280;7003;46.982;15.248;2023-03-23T05:54:51;96875.25;;;4.83;100.00
13867;BME280;7003;46.982;15.248;2023-03-23T05:57:21;96870.84;;;4.92;100.00
13867;BME280;7003;46.982;15.248;2023-03-23T05:59:50;96873.03;;;5.12;100.00
13867;BME280;7003;46.982;15.248;2023-03-23T06:02:25;96881.16;;;5.16;100.00
13867;BME280;7003;46.982;15.248;2023-03-23T06:04:57;96884.06;;;5.28;100.00
13867;BME280;7003;46.982;15.248;2023-03-23T06:07:31;96886.78;;;5.36;100.00
13867;BME280;7003;46.982;15.248;2023-03-23T06:10:01;96889.84;;;5.52;100.00
13867;BME280;7003;46.982;15.248;2023-03-23T06:12:35;96889.00;;;5.65;100.00
13867;BME280;7003;46.982;15.248;2023-03-23T06:15:08;96886.06;;;5.80;100.00
13867;BME280;7003;46.982;15.248;2023-03-23T06:17:40;96889.88;;;5.97;100.00
13867;BME280;7003;46.982;15.248;2023-03-23T06:20:14;96883.00;;;6.09;100.00
13867;BME280;7003;46.982;15.248;2023-03-23T06:22:44;96888.88;;;6.06;100.00
13867;BME280;7003;46.982;15.248;2023-03-23T06:25:16;96898.91;;;6.18;100.00
13867;BME280;7003;46.982;15.248;2023-03-23T06:27:46;96891.91;;;6.22;100.00
13867;BME280;7003;46.982;15.248;2023-03-23T06:30:17;96887.94;;;6.33;100.00
13867;BME280;7003;46.982;15.248;2023-03-23T06:32:49;96884.13;;;6.48;100.00
13867;BME280;7003;46.982;15.248;2023-03-23T06:35:22;96890.78;;;6.45;100.00
13867;BME280;7003;46.982;15.248;2023-03-23T06:37:52;96889.59;;;6.60;100.00
13867;BME280;7003;46.982;15.248;2023-03-23T06:40:22;96893.88;;;6.78;100.00
13867;BME280;7003;46.982;15.248;2023-03-23T06:42:52;96894.53;;;6.92;100.00
13867;BME280;7003;46.982;15.248;2023-03-23T06:45:23;96890.88;;;7.19;100.00
13867;BME280;7003;46.982;15.248;2023-03-23T06:47:55;96889.03;;;7.54;100.00
13867;BME280;7003;46.982;15.248;2023-03-23T06:50:25;96896.97;;;7.46;100.00
13867;BME280;7003;46.982;15.248;2023-03-23T06:52:57;96899.47;;;7.85;100.00
13867;BME280;7003;46.982;15.248;2023-03-23T06:55:29;96898.38;;;8.12;100.00
13867;BME280;7003;46.982;15.248;2023-03-23T06:58:00;96899.09;;;8.47;100.00
13867;BME280;7003;46.982;15.248;2023-03-23T07:00:31;96894.22;;;8.96;100.00
13867;BME280;7003;46.982;15.248;2023-03-23T07:03:00;96903.97;;;9.33;100.00
13867;BME280;7003;46.982;15.248;2023-03-23T07:05:32;96897.47;;;9.51;100.00
13867;BME280;7003;46.982;15.248;2023-03-23T07:08:00;96894.81;;;9.72;100.00
13867;BME280;7003;46.982;15.248;2023-03-23T07:10:28;96899.84;;;9.86;100.00
13867;BME280;7003;46.982;15.248;2023-03-23T07:12:56;96892.44;;;9.91;100.00
13867;BME280;7003;46.982;15.248;2023-03-23T07:15:25;96906.16;;;10.14;100.00
13867;BME280;7003;46.982;15.248;2023-03-23T07:17:53;96895.38;;;10.31;100.00
13867;BME280;7003;46.982;15.248;2023-03-23T07:20:25;96906.38;;;10.42;100.00
13867;BME280;7003;46.982;15.248;2023-03-23T07:22:55;96902.06;;;10.62;100.00
13867;BME280;7003;46.982;15.248;2023-03-23T07:25:23;96902.75;;;10.71;100.00
13867;BME280;7003;46.982;15.248;2023-03-23T07:27:52;96899.25;;;10.91;100.00
13867;BME280;7003;46.982;15.248;2023-03-23T07:30:20;96892.00;;;11.16;100.00
13867;BME280;7003;46.982;15.248;2023-03-23T07:32:48;96897.00;;;11.30;100.00
13867;BME280;7003;46.982;15.248;2023-03-23T07:35:19;96896.88;;;11.26;100.00
13867;BME280;7003;46.982;15.248;2023-03-23T07:37:48;96905.75;;;11.42;100.00
13867;BME280;7003;46.982;15.248;2023-03-23T07:40:17;96902.91;;;11.63;100.00
13867;BME280;7003;46.982;15.248;2023-03-23T07:42:50;96901.13;;;11.79;100.00
13867;BME280;7003;46.982;15.248;2023-03-23T07:45:19;96904.44;;;11.88;100.00
13867;BME280;7003;46.982;15.248;2023-03-23T07:47:49;96908.38;;;12.07;100.00
13867;BME280;7003;46.982;15.248;2023-03-23T07:50:18;96906.44;;;12.35;100.00
13867;BME280;7003;46.982;15.248;2023-03-23T07:52:49;96900.38;;;12.50;100.00
13867;BME280;7003;46.982;15.248;2023-03-23T07:55:19;96906.56;;;12.54;100.00
13867;BME280;7003;46.982;15.248;2023-03-23T07:57:47;96904.75;;;12.43;100.00
13867;BME280;7003;46.982;15.248;2023-03-23T08:00:19;96902.78;;;12.55;100.00
13867;BME280;7003;46.982;15.248;2023-03-23T08:02:51;96907.34;;;12.70;100.00
13867;BME280;7003;46.982;15.248;2023-03-23T08:05:19;96896.50;;;12.79;100.00
13867;BME280;7003;46.982;15.248;2023-03-23T08:07:52;96899.88;;;12.92;100.00
13867;BME280;7003;46.982;15.248;2023-03-23T08:10:23;96898.16;;;12.99;100.00
13867;BME280;7003;46.982;15.248;2023-03-23T08:12:54;96902.16;;;13.09;100.00
13867;BME280;7003;46.982;15.248;2023-03-23T08:15:25;96902.59;;;13.11;100.00
13867;BME280;7003;46.982;15.248;2023-03-23T08:17:54;96899.94;;;12.95;100.00
13867;BME280;7003;46.982;15.248;2023-03-23T08:20:22;96898.16;;;13.15;100.00
13867;BME280;7003;46.982;15.248;2023-03-23T08:22:54;96888.28;;;13.35;100.00
13867;BME280;7003;46.982;15.248;2023-03-23T08:25:23;96880.38;;;13.38;100.00
13867;BME280;7003;46.982;15.248;2023-03-23T08:27:54;96888.69;;;13.72;100.00
13867;BME280;7003;46.982;15.248;2023-03-23T08:30:25;96881.88;;;13.94;100.00
13867;BME280;7003;46.982;15.248;2023-03-23T08:32:55;96879.75;;;13.83;100.00
13867;BME280;7003;46.982;15.248;2023-03-23T08:35:26;96882.16;;;14.08;100.00
13867;BME280;7003;46.982;15.248;2023-03-23T08:37:56;96882.88;;;14.27;100.00
13867;BME280;7003;46.982;15.248;2023-03-23T08:40:24;96877.81;;;14.42;100.00
13867;BME280;7003;46.982;15.248;2023-03-23T08:42:54;96877.03;;;14.41;100.00
13867;BME280;7003;46.982;15.248;2023-03-23T08:45:24;96873.09;;;14.54;100.00
13867;BME280;7003;46.982;15.248;2023-03-23T08:47:52;96868.66;;;14.43;100.00
13867;BME280;7003;46.982;15.248;2023-03-23T08:50:23;96867.41;;;14.59;100.00
13867;BME280;7003;46.982;15.248;2023-03-23T08:52:53;96872.72;;;14.79;100.00
13867;BME280;7003;46.982;15.248;2023-03-23T08:55:26;96870.78;;;14.79;100.00
13867;BME280;7003;46.982;15.248;2023-03-23T08:57:58;96868.53;;;14.81;100.00
13867;BME280;7003;46.982;15.248;2023-03-23T09:00:29;96877.66;;;15.03;100.00
13867;BME280;7003;46.982;15.248;2023-03-23T09:02:57;96872.22;;;15.22;100.00
13867;BME280;7003;46.982;15.248;2023-03-23T09:05:27;96875.97;;;15.70;100.00
13867;BME280;7003;46.982;15.248;2023-03-23T09:07:57;96874.06;;;15.71;100.00
13867;BME280;7003;46.982;15.248;2023-03-23T09:10:28;96879.78;;;15.69;100.00
13867;BME280;7003;46.982;15.248;2023-03-23T09:12:56;96880.72;;;15.84;100.00
13867;BME280;7003;46.982;15.248;2023-03-23T09:15:25;96872.63;;;15.81;100.00
13867;BME280;7003;46.982;15.248;2023-03-23T09:17:54;96871.09;;;15.79;100.00
13867;BME280;7003;46.982;15.248;2023-03-23T09:20:25;96865.69;;;16.09;100.00
13867;BME280;7003;46.982;15.248;2023-03-23T09:22:56;96869.59;;;16.15;100.00
13867;BME280;7003;46.982;15.248;2023-03-23T09:25:27;96871.44;;;16.11;100.00
13867;BME280;7003;46.982;15.248;2023-03-23T09:27:58;96872.06;;;16.35;100.00
13867;BME280;7003;46.982;15.248;2023-03-23T09:30:29;96879.31;;;16.64;100.00
13867;BME280;7003;46.982;15.248;2023-03-23T09:33:01;96874.78;;;16.72;100.00
13867;BME280;7003;46.982;15.248;2023-03-23T09:35:30;96870.91;;;16.73;100.00
13867;BME280;7003;46.982;15.248;2023-03-23T09:38:00;96873.22;;;16.71;100.00
13867;BME280;7003;46.982;15.248;2023-03-23T09:40:35;96866.69;;;16.68;100.00
13867;BME280;7003;46.982;15.248;2023-03-23T09:43:33;96863.28;;;16.75;100.00
13867;BME280;7003;46.982;15.248;2023-03-23T09:46:19;96857.31;;;16.99;97.11
13867;BME280;7003;46.982;15.248;2023-03-23T09:48:52;96855.84;;;17.71;98.54
13867;BME280;7003;46.982;15.248;2023-03-23T09:51:40;96860.44;;;17.63;97.76
13867;BME280;7003;46.982;15.248;2023-03-23T09:54:14;96856.00;;;17.30;97.30
13867;BME280;7003;46.982;15.248;2023-03-23T09:56:50;96854.63;;;17.57;89.01
13867;BME280;7003;46.982;15.248;2023-03-23T09:59:21;96845.53;;;17.87;90.44
13867;BME280;7003;46.982;15.248;2023-03-23T10:01:58;96844.69;;;17.03;85.96
13867;BME280;7003;46.982;15.248;2023-03-23T10:04:34;96850.56;;;17.23;83.76
13867;BME280;7003;46.982;15.248;2023-03-23T10:07:10;96849.91;;;17.44;88.12
13867;BME280;7003;46.982;15.248;2023-03-23T10:09:40;96837.38;;;17.65;87.10
13867;BME280;7003;46.982;15.248;2023-03-23T10:12:24;96839.72;;;17.74;86.29
13867;BME280;7003;46.982;15.248;2023-03-23T10:15:12;96837.00;;;17.67;86.40
13867;BME280;7003;46.982;15.248;2023-03-23T10:17:46;96827.81;;;17.75;81.62
13867;BME280;7003;46.982;15.248;2023-03-23T10:20:24;96824.06;;;18.01;78.14
13867;BME280;7003;46.982;15.248;2023-03-23T10:23:11;96831.84;;;18.59;74.83
13867;BME280;7003;46.982;15.248;2023-03-23T10:25:42;96823.38;;;18.61;70.18
13867;BME280;7003;46.982;15.248;2023-03-23T10:28:17;96818.34;;;19.27;72.47
13867;BME280;7003;46.982;15.248;2023-03-23T10:30:52;96818.16;;;19.80;68.31
13867;BME280;7003;46.982;15.248;2023-03-23T10:33:25;96816.00;;;20.23;66.87
13867;BME280;7003;46.982;15.248;2023-03-23T10:36:03;96813.16;;;20.51;63.70
13867;BME280;7003;46.982;15.248;2023-03-23T10:38:35;96810.97;;;20.80;59.53
13867;BME280;7003;46.982;15.248;2023-03-23T10:41:09;96800.91;;;21.25;59.40
13867;BME280;7003;46.982;15.248;2023-03-23T10:43:40;96800.59;;;21.54;57.98
13867;BME280;7003;46.982;15.248;2023-03-23T10:46:21;96800.56;;;21.57;57.78
13867;BME280;7003;46.982;15.248;2023-03-23T10:48:53;96799.69;;;21.94;57.36
13867;BME280;7003;46.982;15.248;2023-03-23T10:51:26;96794.84;;;21.82;54.71
13867;BME280;7003;46.982;15.248;2023-03-23T10:53:58;96801.38;;;22.15;55.50
13867;BME280;7003;46.982;15.248;2023-03-23T10:56:28;96795.28;;;22.34;55.58
13867;BME280;7003;46.982;15.248;2023-03-23T10:59:10;96805.50;;;22.23;52.27
13867;BME280;7003;46.982;15.248;2023-03-23T11:01:38;96795.72;;;22.56;54.54
13867;BME280;7003;46.982;15.248;2023-03-23T11:04:12;96793.25;;;23.12;53.74
13867;BME280;7003;46.982;15.248;2023-03-23T11:06:45;96792.03;;;23.36;51.72
13867;BME280;7003;46.982;15.248;2023-03-23T11:09:15;96785.25;;;23.05;52.32
13867;BME280;7003;46.982;15.248;2023-03-23T11:11:48;96789.00;;;22.41;51.67
13867;BME280;7003;46.982;15.248;2023-03-23T11:14:24;96783.72;;;22.30;53.40
13867;BME280;7003;46.982;15.248;2023-03-23T11:16:56;96792.59;;;22.34;53.45
13867;BME280;7003;46.982;15.248;2023-03-23T11:19:28;96793.50;;;22.51;52.86
13867;BME280;7003;46.982;15.248;2023-03-23T11:22:06;96798.22;;;22.20;53.69
13867;BME280;7003;46.982;15.248;2023-03-23T11:24:36;96791.97;;;21.93;51.11
13867;BME280;7003;46.982;15.248;2023-03-23T11:27:11;96797.56;;;21.82;54.82
13867;BME280;7003;46.982;15.248;2023-03-23T11:29:49;96803.09;;;21.71;54.60
13867;BME280;7003;46.982;15.248;2023-03-23T11:32:18;96798.31;;;21.82;54.92
13867;BME280;7003;46.982;15.248;2023-03-23T11:34:54;96792.91;;;21.82;55.60
13867;BME280;7003;46.982;15.248;2023-03-23T11:37:27;96790.91;;;22.17;56.73
13867;BME280;7003;46.982;15.248;2023-03-23T11:39:57;96781.78;;;22.57;55.12
13867;BME280;7003;46.982;15.248;2023-03-23T11:42:35;96775.66;;;22.77;50.42
13867;BME280;7003;46.982;15.248;2023-03-23T11:45:18;96782.06;;;23.53;50.79
13867;BME280;7003;46.982;15.248;2023-03-23T11:47:57;96780.59;;;23.68;49.74
13867;BME280;7003;46.982;15.248;2023-03-23T11:50:29;96776.25;;;23.70;45.00
13867;BME280;7003;46.982;15.248;2023-03-23T11:53:01;96778.69;;;23.65;50.07
13867;BME280;7003;46.982;15.248;2023-03-23T11:55:49;96780.44;;;23.75;48.21
13867;BME280;7003;46.982;15.248;2023-03-23T11:58:21;96783.59;;;23.90;48.77
13867;BME280;7003;46.982;15.248;2023-03-23T12:00:55;96774.22;;;24.10;47.92
13867;BME280;7003;46.982;15.248;2023-03-23T12:06:15;96759.06;;;24.62;46.91
13867;BME280;7003;46.982;15.248;2023-03-23T12:08:55;96749.97;;;24.36;45.73
13867;BME280;7003;46.982;15.248;2023-03-23T12:11:31;96747.72;;;23.42;48.71
13867;BME280;7003;46.982;15.248;2023-03-23T12:14:14;96747.53;;;23.89;45.57
13867;BME280;7003;46.982;15.248;2023-03-23T12:17:07;96746.03;;;24.04;43.37
13867;BME280;7003;46.982;15.248;2023-03-23T12:19:43;96741.25;;;23.56;45.36
13867;BME280;7003;46.982;15.248;2023-03-23T12:22:30;96746.91;;;21.79;46.65
13867;BME280;7003;46.982;15.248;2023-03-23T12:25:12;96748.47;;;21.76;46.79
13867;BME280;7003;46.982;15.248;2023-03-23T12:27:49;96742.78;;;22.24;49.45
13867;BME280;7003;46.982;15.248;2023-03-23T12:30:27;96746.78;;;22.43;48.47
13867;BME280;7003;46.982;15.248;2023-03-23T12:33:13;96740.47;;;21.69;47.95
13867;BME280;7003;46.982;15.248;2023-03-23T12:35:50;96738.84;;;21.75;49.21
13867;BME280;7003;46.982;15.248;2023-03-23T12:38:31;96740.19;;;21.91;47.58
13867;BME280;7003;46.982;15.248;2023-03-23T12:41:12;96735.03;;;22.73;44.86
13867;BME280;7003;46.982;15.248;2023-03-23T12:43:49;96737.91;;;23.29;44.65
13867;BME280;7003;46.982;15.248;2023-03-23T12:46:33;96723.50;;;23.52;43.70
13867;BME280;7003;46.982;15.248;2023-03-23T12:49:09;96715.09;;;23.07;44.16
13867;BME280;7003;46.982;15.248;2023-03-23T12:51:45;96718.38;;;22.01;44.82
13867;BME280;7003;46.982;15.248;2023-03-23T12:54:23;96725.34;;;21.72;48.37
13867;BME280;7003;46.982;15.248;2023-03-23T12:57:00;96716.03;;;21.46;48.26
13867;BME280;7003;46.982;15.248;2023-03-23T12:59:36;96710.09;;;21.28;49.16
13867;BME280;7003;46.982;15.248;2023-03-23T13:02:14;96701.69;;;21.49;51.76
13867;BME280;7003;46.982;15.248;2023-03-23T13:04:49;96693.03;;;22.15;47.33
13867;BME280;7003;46.982;15.248;2023-03-23T13:07:21;96679.06;;;22.40;49.88
13867;BME280;7003;46.982;15.248;2023-03-23T13:09:55;96682.84;;;22.46;48.32
13867;BME280;7003;46.982;15.248;2023-03-23T13:12:30;96679.47;;;22.61;46.04
13867;BME280;7003;46.982;15.248;2023-03-23T13:15:04;96682.81;;;21.99;48.67
13867;BME280;7003;46.982;15.248;2023-03-23T13:17:43;96681.19;;;21.78;48.43
13867;BME280;7003;46.982;15.248;2023-03-23T13:20:38;96677.81;;;21.71;46.59
13867;BME280;7003;46.982;15.248;2023-03-23T13:23:12;96673.00;;;21.25;46.18
13867;BME280;7003;46.982;15.248;2023-03-23T13:25:51;96679.41;;;21.38;48.41
13867;BME280;7003;46.982;15.248;2023-03-23T13:28:22;96673.09;;;21.48;48.79
13867;BME280;7003;46.982;15.248;2023-03-23T13:30:58;96668.13;;;21.73;48.52